Time;durP1;ratioP1;P1;durP2;ratioP2;P2;SDS_P1;SDS_P2;PMS_P1;PMS_P2;Temp;Humidity;BMP_temperature;BMP_pressure;BME280_temperature;BME280_humidity;BME280_pressure;Samples;Min_cycle;Max_cycle;Signal;HPM_P1;HPM_P2
2023/07/01 00:00:40;;;;;;;7.43;3.22;;;18.20;95.70;;;;;;5053786;28;20495;-71
2023/07/01 00:03:07;;;;;;;5.55;2.47;;;18.20;95.60;;;;;;5054374;28;20481;-71
2023/07/01 00:05:33;;;;;;;3.60;2.00;;;18.20;95.60;;;;;;5053304;28;20095;-72
2023/07/01 00:07:59;;;;;;;6.22;3.15;;;18.20;95.60;;;;;;5053136;28;20048;-71
2023/07/01 00:10:26;;;;;;;5.00;2.50;;;18.20;95.90;;;;;;5036780;28;20511;-70
2023/07/01 00:12:52;;;;;;;5.72;2.70;;;18.20;95.60;;;;;;5053013;28;20365;-72
2023/07/01 00:15:18;;;;;;;6.18;3.10;;;18.20;95.60;;;;;;5054782;28;20132;-72
2023/07/01 00:17:44;;;;;;;7.20;2.63;;;18.20;95.70;;;;;;5054937;28;20049;-72
2023/07/01 00:20:11;;;;;;;4.10;2.08;;;18.20;95.60;;;;;;5053272;28;20363;-72
2023/07/01 00:22:36;;;;;;;10.30;2.83;;;18.20;95.70;;;;;;5055062;28;20059;-72
2023/07/01 00:25:03;;;;;;;5.85;2.47;;;18.20;95.70;;;;;;5054121;28;20441;-73
2023/07/01 00:27:28;;;;;;;6.75;2.75;;;18.10;95.70;;;;;;5054302;28;20041;-72
2023/07/01 00:29:54;;;;;;;6.30;2.75;;;18.10;95.80;;;;;;5054234;28;20052;-72
2023/07/01 00:32:20;;;;;;;5.07;2.72;;;18.10;95.90;;;;;;5054553;28;20049;-72
2023/07/01 00:34:45;;;;;;;7.78;2.90;;;18.10;96.00;;;;;;5054478;28;20347;-72
2023/07/01 00:37:11;;;;;;;5.50;2.65;;;18.10;96.10;;;;;;5054373;28;20159;-72
2023/07/01 00:39:37;;;;;;;6.45;2.92;;;17.80;96.10;;;;;;5054386;28;20453;-71
2023/07/01 00:42:03;;;;;;;3.72;2.67;;;18.10;96.20;;;;;;5054046;28;20477;-71
2023/07/01 00:44:28;;;;;;;5.68;2.72;;;18.10;96.40;;;;;;5054156;28;20106;-71
2023/07/01 00:46:54;;;;;;;8.50;3.17;;;18.20;96.30;;;;;;5053971;28;20041;-71
2023/07/01 00:49:21;;;;;;;5.82;2.45;;;18.20;96.40;;;;;;5054266;28;20056;-71
2023/07/01 00:51:46;;;;;;;3.75;2.15;;;18.10;96.40;;;;;;5053969;28;20087;-71
2023/07/01 00:54:12;;;;;;;7.45;2.70;;;18.20;96.70;;;;;;5054296;28;20041;-72
2023/07/01 00:56:38;;;;;;;8.55;3.45;;;18.20;96.70;;;;;;5054252;28;20052;-71
2023/07/01 00:59:04;;;;;;;4.22;2.58;;;18.10;96.70;;;;;;5054219;28;20049;-71
2023/07/01 01:01:34;;;;;;;6.03;2.72;;;18.10;96.60;;;;;;5054032;28;20521;-71
2023/07/01 01:04:17;;;;;;;6.55;3.10;;;18.20;96.70;;;;;;5053581;28;20120;-71
2023/07/01 01:07:03;;;;;;;5.20;3.05;;;18.20;96.90;;;;;;5053943;28;20506;-72
2023/07/01 01:09:51;;;;;;;5.38;2.40;;;18.10;96.90;;;;;;5052922;28;20386;-70
2023/07/01 01:12:20;;;;;;;5.32;3.00;;;18.10;97.20;;;;;;5053472;28;20056;-71
2023/07/01 01:14:48;;;;;;;4.40;2.80;;;18.10;97.00;;;;;;5052270;28;20045;-70
2023/07/01 01:17:14;;;;;;;5.85;2.50;;;18.10;97.10;;;;;;5051310;28;20077;-71
2023/07/01 01:19:47;;;;;;;3.70;2.42;;;18.10;97.10;;;;;;5053421;28;20057;-71
2023/07/01 01:22:19;;;;;;;8.40;3.30;;;18.10;97.30;;;;;;5053426;28;20047;-70
2023/07/01 01:24:51;;;;;;;4.25;2.13;;;18.10;97.30;;;;;;5053297;28;20142;-71
2023/07/01 01:27:23;;;;;;;5.80;2.97;;;18.10;97.60;;;;;;5053448;28;20052;-71
2023/07/01 01:29:49;;;;;;;5.28;2.50;;;18.10;97.50;;;;;;5053639;28;20049;-71
2023/07/01 01:32:15;;;;;;;6.28;3.17;;;18.10;97.50;;;;;;5053200;28;20052;-71
2023/07/01 01:34:40;;;;;;;6.05;3.10;;;18.10;97.40;;;;;;5053073;28;20467;-70
2023/07/01 01:37:12;;;;;;;4.15;2.70;;;18.10;97.40;;;;;;5051788;28;20045;-71
2023/07/01 01:39:45;;;;;;;5.65;3.17;;;18.10;97.70;;;;;;5052000;28;20065;-72
2023/07/01 01:42:39;;;;;;;7.35;3.33;;;18.10;97.80;;;;;;5053015;28;20114;-71
2023/07/01 01:45:07;;;;;;;7.57;2.83;;;18.10;97.90;;;;;;5031159;28;20102;-70
2023/07/01 01:47:33;;;;;;;4.05;3.05;;;18.00;98.10;;;;;;5051637;28;20079;-71
2023/07/01 01:50:03;;;;;;;3.33;2.53;;;18.00;98.10;;;;;;5052836;28;20041;-71
2023/07/01 01:52:31;;;;;;;10.73;3.53;;;18.00;98.40;;;;;;5052657;28;20045;-71
2023/07/01 01:54:57;;;;;;;6.07;2.88;;;18.00;99.30;;;;;;5051988;28;20055;-71
2023/07/01 01:57:24;;;;;;;5.00;3.10;;;17.90;99.90;;;;;;5052978;28;20048;-71
2023/07/01 01:59:50;;;;;;;8.70;3.95;;;17.80;99.90;;;;;;5052389;28;20062;-72
2023/07/01 02:02:16;;;;;;;6.38;3.53;;;17.80;99.90;;;;;;5052595;28;20132;-71
2023/07/01 02:04:42;;;;;;;5.50;3.85;;;17.60;99.90;;;;;;5052164;28;20080;-71
2023/07/01 02:07:08;;;;;;;8.45;4.22;;;17.50;99.90;;;;;;5052471;28;20044;-71
2023/07/01 02:09:33;;;;;;;7.90;3.72;;;17.40;99.90;;;;;;5052438;28;20053;-71
2023/07/01 02:11:59;;;;;;;5.60;3.83;;;17.20;99.90;;;;;;5052381;28;20044;-71
2023/07/01 02:14:25;;;;;;;5.82;4.13;;;17.20;99.90;;;;;;5051619;28;20106;-71
2023/07/01 02:16:51;;;;;;;8.05;4.20;;;17.10;99.90;;;;;;5052393;28;20088;-71
2023/07/01 02:19:17;;;;;;;6.20;3.65;;;17.10;99.90;;;;;;5051277;28;20048;-70
2023/07/01 02:21:43;;;;;;;8.15;3.90;;;17.00;99.90;;;;;;5052657;28;20374;-71
2023/07/01 02:24:09;;;;;;;5.60;3.90;;;17.00;99.90;;;;;;5052268;28;20366;-70
2023/07/01 02:26:35;;;;;;;6.78;3.60;;;17.00;99.90;;;;;;5052720;28;20095;-71
2023/07/01 02:29:01;;;;;;;6.13;3.97;;;17.00;99.90;;;;;;5052288;28;20048;-70
2023/07/01 02:31:27;;;;;;;8.85;4.68;;;17.00;99.90;;;;;;5052224;28;20037;-71
2023/07/01 02:34:00;;;;;;;18.80;5.07;;;17.00;99.90;;;;;;5052231;28;20383;-70
2023/07/01 02:36:26;;;;;;;4.18;3.63;;;17.10;99.90;;;;;;5052710;28;20044;-71
2023/07/01 02:38:52;;;;;;;5.15;3.50;;;17.10;99.90;;;;;;5051843;28;20484;-71
2023/07/01 02:41:18;;;;;;;7.25;4.13;;;17.10;99.90;;;;;;5052238;28;20444;-70
2023/07/01 02:43:43;;;;;;;8.35;3.95;;;17.10;99.90;;;;;;5051222;28;20512;-70
2023/07/01 02:46:09;;;;;;;8.95;4.45;;;17.50;99.90;;;;;;5034794;28;20041;-70
2023/07/01 02:48:35;;;;;;;5.03;4.00;;;17.10;99.90;;;;;;5051992;28;20536;-71
2023/07/01 02:51:00;;;;;;;6.65;4.00;;;17.10;99.90;;;;;;5052020;28;20385;-70
2023/07/01 02:53:26;;;;;;;7.32;4.00;;;17.20;99.90;;;;;;5052041;28;20135;-71
2023/07/01 02:55:52;;;;;;;5.88;4.57;;;17.20;99.90;;;;;;5050406;28;20124;-70
2023/07/01 02:58:19;;;;;;;7.13;4.55;;;17.20;99.90;;;;;;5051977;28;20041;-71
2023/07/01 03:00:46;;;;;;;6.25;4.93;;;17.20;99.90;;;;;;5051896;28;20141;-71
2023/07/01 03:03:12;;;;;;;6.47;4.28;;;17.20;99.90;;;;;;5051864;28;20045;-71
2023/07/01 03:05:39;;;;;;;6.60;4.70;;;17.20;99.90;;;;;;5051859;28;20056;-70
2023/07/01 03:08:05;;;;;;;7.32;4.55;;;17.10;99.90;;;;;;5050719;28;20049;-71
2023/07/01 03:10:31;;;;;;;7.97;4.75;;;17.10;99.90;;;;;;5050893;28;20049;-71
2023/07/01 03:12:57;;;;;;;8.20;4.80;;;17.20;99.90;;;;;;5050563;28;20127;-70
2023/07/01 03:15:23;;;;;;;7.43;3.97;;;17.10;99.90;;;;;;5052048;28;20049;-71
2023/07/01 03:17:50;;;;;;;16.20;4.63;;;17.10;99.90;;;;;;5051970;28;20045;-71
2023/07/01 03:20:25;;;;;;;10.68;4.00;;;17.10;99.90;;;;;;5052186;28;20045;-71
2023/07/01 03:22:52;;;;;;;6.97;4.43;;;17.20;99.90;;;;;;5067635;28;20045;-71
2023/07/01 03:25:18;;;;;;;5.85;3.58;;;17.20;99.90;;;;;;5050917;28;20479;-71
2023/07/01 03:27:44;;;;;;;4.03;3.33;;;17.30;99.90;;;;;;5052008;28;20041;-70
2023/07/01 03:30:13;;;;;;;6.20;3.78;;;17.20;99.90;;;;;;5050702;28;20068;-70
2023/07/01 03:32:44;;;;;;;5.53;4.25;;;17.20;99.90;;;;;;5051550;28;20127;-71
2023/07/01 03:35:10;;;;;;;5.90;3.97;;;17.20;99.90;;;;;;5052131;28;20070;-72
2023/07/01 03:37:40;;;;;;;4.55;3.95;;;17.20;99.90;;;;;;5051649;28;20076;-72
2023/07/01 03:40:10;;;;;;;5.85;4.63;;;17.10;99.90;;;;;;5053624;28;20053;-71
2023/07/01 03:42:42;;;;;;;7.18;4.82;;;17.10;99.90;;;;;;5055076;28;20041;-72
2023/07/01 03:45:10;;;;;;;8.32;4.75;;;17.00;99.90;;;;;;5055807;28;20103;-71
2023/07/01 03:47:37;;;;;;;7.93;4.80;;;16.90;99.90;;;;;;5055127;28;20041;-72
2023/07/01 03:50:03;;;;;;;6.45;4.07;;;16.80;99.90;;;;;;5055423;28;20053;-71
2023/07/01 03:52:30;;;;;;;6.82;4.50;;;16.80;99.90;;;;;;5055176;28;20412;-71
2023/07/01 03:54:56;;;;;;;7.32;4.60;;;16.70;99.90;;;;;;5055228;28;20041;-71
2023/07/01 03:57:22;;;;;;;6.72;4.50;;;16.70;99.90;;;;;;5037773;28;20051;-71
2023/07/01 03:59:48;;;;;;;6.35;4.00;;;16.60;99.90;;;;;;5037903;28;20060;-72
2023/07/01 04:02:14;;;;;;;5.18;4.30;;;16.60;99.90;;;;;;5054860;28;20604;-71
2023/07/01 04:04:40;;;;;;;7.78;4.05;;;16.60;99.90;;;;;;5054776;28;20077;-71
2023/07/01 04:07:06;;;;;;;7.20;4.25;;;16.60;99.90;;;;;;5037094;28;20120;-71
2023/07/01 04:09:32;;;;;;;6.95;3.90;;;16.60;99.90;;;;;;5053600;28;20134;-71
2023/07/01 04:11:57;;;;;;;6.13;4.18;;;16.60;99.90;;;;;;5054553;28;20053;-72
2023/07/01 04:14:24;;;;;;;4.85;3.80;;;16.60;99.90;;;;;;5054932;28;20436;-72
2023/07/01 04:16:50;;;;;;;4.70;3.70;;;16.70;99.90;;;;;;5054571;28;20055;-71
2023/07/01 04:19:16;;;;;;;6.95;3.85;;;16.70;99.90;;;;;;5055233;28;20120;-69
2023/07/01 04:21:42;;;;;;;4.28;3.88;;;16.60;99.90;;;;;;5053983;28;20041;-70
2023/07/01 04:24:07;;;;;;;5.70;4.20;;;16.70;99.90;;;;;;5054402;28;20493;-71
2023/07/01 04:26:36;;;;;;;6.95;4.10;;;16.70;99.90;;;;;;5054917;28;20411;-71
2023/07/01 04:29:03;;;;;;;7.45;3.92;;;16.70;99.90;;;;;;5053090;28;20052;-70
2023/07/01 04:31:28;;;;;;;4.57;4.18;;;16.70;99.90;;;;;;5054183;28;20056;-72
2023/07/01 04:33:55;;;;;;;5.63;3.92;;;16.70;99.90;;;;;;5054182;28;20049;-72
2023/07/01 04:36:21;;;;;;;6.35;3.83;;;16.70;99.90;;;;;;5054128;28;20137;-70
2023/07/01 04:38:47;;;;;;;7.22;3.80;;;16.70;99.90;;;;;;5054202;28;20065;-72
2023/07/01 04:41:13;;;;;;;5.63;3.47;;;16.70;99.90;;;;;;5053994;28;20055;-71
2023/07/01 04:43:39;;;;;;;5.60;4.05;;;16.70;99.90;;;;;;5053175;28;20179;-71
2023/07/01 04:46:05;;;;;;;4.47;3.38;;;16.80;99.90;;;;;;5053869;28;20064;-71
2023/07/01 04:48:31;;;;;;;8.77;4.63;;;16.70;99.90;;;;;;5053852;28;20045;-71
2023/07/01 04:50:56;;;;;;;4.95;3.85;;;16.80;99.90;;;;;;5052406;28;20049;-71
2023/07/01 04:53:23;;;;;;;4.80;4.15;;;16.80;99.90;;;;;;5053861;28;20049;-71
2023/07/01 04:55:48;;;;;;;8.35;3.95;;;16.80;99.90;;;;;;5053685;28;20056;-72
2023/07/01 04:58:14;;;;;;;5.97;4.28;;;16.80;99.90;;;;;;5052982;28;20114;-71
2023/07/01 05:00:40;;;;;;;5.40;4.22;;;16.90;99.90;;;;;;5054086;28;20123;-71
2023/07/01 05:03:06;;;;;;;6.53;3.78;;;16.90;99.90;;;;;;5053723;28;20428;-71
2023/07/01 05:05:32;;;;;;;5.32;3.97;;;16.90;99.90;;;;;;5052998;28;20052;-72
2023/07/01 05:07:58;;;;;;;4.60;4.00;;;17.00;99.90;;;;;;5053460;28;20059;-72
2023/07/01 05:10:23;;;;;;;5.68;3.50;;;17.00;99.90;;;;;;5052350;28;20128;-72
2023/07/01 05:12:50;;;;;;;4.38;3.97;;;17.00;99.90;;;;;;5051874;28;20056;-71
2023/07/01 05:15:16;;;;;;;4.85;4.18;;;17.00;99.90;;;;;;5053287;28;20090;-72
2023/07/01 05:17:42;;;;;;;5.40;4.35;;;17.00;99.90;;;;;;5053317;28;20134;-71
2023/07/01 05:20:09;;;;;;;8.63;4.22;;;17.00;99.90;;;;;;5053381;28;20117;-72
2023/07/01 05:22:35;;;;;;;5.43;3.80;;;17.00;99.90;;;;;;5051999;28;20059;-72
2023/07/01 05:25:01;;;;;;;7.05;4.20;;;17.00;99.90;;;;;;5053323;28;20037;-71
2023/07/01 05:27:27;;;;;;;6.57;4.10;;;17.00;99.90;;;;;;5053024;28;20040;-72
2023/07/01 05:29:53;;;;;;;5.85;3.97;;;17.00;99.90;;;;;;5052658;28;20040;-71
2023/07/01 05:32:18;;;;;;;5.85;4.28;;;17.00;99.90;;;;;;5053039;28;20048;-72
2023/07/01 05:34:44;;;;;;;8.48;4.32;;;17.00;99.90;;;;;;5052947;28;20066;-72
2023/07/01 05:37:10;;;;;;;5.43;3.88;;;17.00;99.90;;;;;;5053025;28;20067;-72
2023/07/01 05:39:36;;;;;;;6.90;4.43;;;17.10;99.90;;;;;;5052692;28;20128;-72
2023/07/01 05:42:02;;;;;;;7.80;4.13;;;17.10;99.90;;;;;;5052568;28;20124;-72
2023/07/01 05:44:27;;;;;;;6.30;4.32;;;17.20;99.90;;;;;;5051360;28;20441;-72
2023/07/01 05:46:54;;;;;;;5.05;4.20;;;17.20;99.90;;;;;;5052878;28;20049;-71
2023/07/01 05:49:19;;;;;;;5.78;4.10;;;17.20;99.90;;;;;;5052319;28;20041;-72
2023/07/01 05:51:46;;;;;;;5.00;4.07;;;17.20;99.90;;;;;;5052921;28;20051;-71
2023/07/01 05:54:12;;;;;;;7.45;4.75;;;17.20;99.90;;;;;;5034626;28;20575;-72
2023/07/01 05:56:38;;;;;;;7.88;4.55;;;17.20;99.90;;;;;;5052336;28;20085;-71
2023/07/01 05:59:03;;;;;;;7.50;4.28;;;17.30;99.90;;;;;;5051368;28;20079;-72
2023/07/01 06:01:29;;;;;;;7.18;4.30;;;17.30;99.90;;;;;;5052120;28;20041;-71
2023/07/01 06:03:55;;;;;;;5.53;4.03;;;17.30;99.90;;;;;;5050796;28;20089;-71
2023/07/01 06:06:21;;;;;;;5.20;4.57;;;17.40;99.90;;;;;;5052051;28;20044;-71
2023/07/01 06:08:48;;;;;;;6.05;4.50;;;17.40;99.90;;;;;;5051913;28;20048;-72
2023/07/01 06:11:14;;;;;;;5.35;4.72;;;17.40;99.90;;;;;;5051974;28;20053;-72
2023/07/01 06:13:46;;;;;;;4.50;3.65;;;17.40;99.90;;;;;;5051414;28;20134;-72
2023/07/01 06:16:13;;;;;;;8.57;4.25;;;17.40;99.90;;;;;;5052273;28;20496;-72
2023/07/01 06:18:40;;;;;;;7.70;4.50;;;17.40;99.90;;;;;;5052052;28;20041;-72
2023/07/01 06:21:09;;;;;;;5.22;4.32;;;17.40;99.90;;;;;;5051979;28;20040;-72
2023/07/01 06:23:38;;;;;;;6.63;5.13;;;17.40;99.90;;;;;;5051851;28;20081;-72
2023/07/01 06:26:05;;;;;;;6.18;3.97;;;17.40;99.90;;;;;;5051985;28;20037;-72
2023/07/01 06:28:31;;;;;;;5.22;3.95;;;17.50;99.90;;;;;;5051530;28;20499;-72
2023/07/01 06:30:56;;;;;;;5.07;4.57;;;17.50;99.90;;;;;;5052201;28;20044;-71
2023/07/01 06:33:22;;;;;;;6.45;4.07;;;17.50;99.90;;;;;;5052137;28;20133;-72
2023/07/01 06:35:48;;;;;;;8.70;4.63;;;17.50;99.90;;;;;;5052000;28;20394;-71
2023/07/01 06:38:14;;;;;;;6.45;4.70;;;17.50;99.90;;;;;;5050340;28;20053;-72
2023/07/01 06:40:39;;;;;;;8.43;5.22;;;17.50;99.90;;;;;;5052118;28;20390;-73
2023/07/01 06:43:05;;;;;;;5.32;4.50;;;17.50;99.90;;;;;;5051800;28;20503;-73
2023/07/01 06:45:32;;;;;;;8.98;5.50;;;17.50;99.90;;;;;;5052129;28;20049;-73
2023/07/01 06:48:01;;;;;;;7.00;5.63;;;17.50;99.90;;;;;;5051455;28;20112;-73
2023/07/01 06:50:27;;;;;;;6.53;5.15;;;17.40;99.90;;;;;;5051775;28;20059;-73
2023/07/01 06:52:52;;;;;;;7.05;5.00;;;17.40;99.90;;;;;;5052024;28;20052;-73
2023/07/01 06:55:18;;;;;;;5.93;5.05;;;17.30;99.90;;;;;;5050151;28;20053;-74
2023/07/01 06:57:44;;;;;;;5.30;4.20;;;17.30;99.90;;;;;;5051570;28;20040;-73
2023/07/01 07:00:13;;;;;;;6.25;5.13;;;17.30;99.90;;;;;;5051764;28;20071;-73
2023/07/01 07:02:39;;;;;;;8.60;5.22;;;17.40;99.90;;;;;;5052038;28;20049;-73
2023/07/01 07:05:06;;;;;;;5.72;5.22;;;17.50;99.90;;;;;;5051903;28;20045;-73
2023/07/01 07:07:32;;;;;;;10.82;5.05;;;17.60;99.90;;;;;;5051333;28;20045;-72
2023/07/01 07:09:58;;;;;;;7.93;5.15;;;17.60;99.90;;;;;;5052144;28;20055;-72
2023/07/01 07:12:25;;;;;;;6.13;5.10;;;17.60;99.90;;;;;;5051629;28;20052;-72
2023/07/01 07:14:50;;;;;;;6.65;4.80;;;17.60;99.90;;;;;;5053800;28;20057;-72
2023/07/01 07:17:16;;;;;;;6.38;5.45;;;17.50;99.90;;;;;;5055714;28;20479;-72
2023/07/01 07:19:42;;;;;;;5.75;4.78;;;17.50;99.90;;;;;;5055719;28;20474;-72
2023/07/01 07:22:07;;;;;;;6.47;4.20;;;17.50;99.90;;;;;;5055734;28;20063;-72
2023/07/01 07:24:33;;;;;;;5.38;4.88;;;17.50;99.90;;;;;;5055827;28;20417;-72
2023/07/01 07:27:00;;;;;;;6.90;4.38;;;17.60;99.90;;;;;;5055299;28;20049;-72
2023/07/01 07:29:29;;;;;;;4.88;4.47;;;17.70;99.90;;;;;;5055821;28;20057;-72
2023/07/01 07:31:58;;;;;;;5.63;4.30;;;17.80;99.90;;;;;;5055795;28;20052;-72
2023/07/01 07:34:24;;;;;;;5.80;4.07;;;17.80;99.90;;;;;;5055498;28;20131;-72
2023/07/01 07:36:50;;;;;;;5.28;4.80;;;17.80;99.90;;;;;;5054254;28;20045;-72
2023/07/01 07:39:16;;;;;;;4.22;3.83;;;17.80;99.90;;;;;;5054929;28;20088;-72
2023/07/01 07:41:43;;;;;;;4.47;4.05;;;17.80;99.90;;;;;;5055133;28;20049;-72
2023/07/01 07:44:09;;;;;;;5.47;4.20;;;17.90;99.90;;;;;;5055089;28;20053;-72
2023/07/01 07:46:35;;;;;;;5.18;3.95;;;17.90;99.90;;;;;;5055159;28;20136;-72
2023/07/01 07:49:01;;;;;;;3.90;3.60;;;18.00;99.90;;;;;;5054667;28;20418;-72
2023/07/01 07:51:27;;;;;;;4.68;4.13;;;18.00;99.90;;;;;;5055378;28;20051;-72
2023/07/01 07:53:53;;;;;;;5.20;4.70;;;18.10;99.90;;;;;;5054972;28;20048;-72
2023/07/01 07:56:19;;;;;;;4.25;3.80;;;18.00;99.90;;;;;;5054875;28;20060;-72
2023/07/01 07:58:45;;;;;;;4.63;3.97;;;18.00;99.90;;;;;;5055013;28;20045;-72
2023/07/01 08:01:11;;;;;;;4.50;4.10;;;18.00;99.90;;;;;;5053189;28;20450;-72
2023/07/01 08:03:38;;;;;;;4.93;3.65;;;18.00;99.90;;;;;;5054421;28;20057;-72
2023/07/01 08:06:04;;;;;;;3.75;3.45;;;18.10;99.90;;;;;;5054557;28;20053;-72
2023/07/01 08:08:30;;;;;;;4.47;4.07;;;18.10;99.90;;;;;;5054485;28;20041;-72
2023/07/01 08:10:58;;;;;;;4.22;3.83;;;18.10;99.90;;;;;;5054582;28;20045;-72
2023/07/01 08:13:24;;;;;;;4.45;4.05;;;18.10;99.90;;;;;;5054336;28;20041;-72
2023/07/01 08:15:50;;;;;;;4.95;4.45;;;18.00;99.90;;;;;;5054437;28;20045;-72
2023/07/01 08:18:16;;;;;;;4.82;4.15;;;18.10;99.90;;;;;;5054669;28;20150;-72
2023/07/01 08:20:44;;;;;;;5.28;4.50;;;18.10;99.90;;;;;;5053725;28;20118;-72
2023/07/01 08:23:10;;;;;;;5.18;4.45;;;18.20;99.90;;;;;;5054201;28;20075;-72
2023/07/01 08:25:38;;;;;;;4.82;4.32;;;18.30;99.90;;;;;;5053804;28;20461;-72
2023/07/01 08:28:04;;;;;;;4.40;4.00;;;18.40;99.90;;;;;;5054462;28;20045;-72
2023/07/01 08:30:29;;;;;;;5.35;4.85;;;18.50;99.90;;;;;;5054015;28;20514;-72
2023/07/01 08:32:55;;;;;;;5.72;4.57;;;18.50;99.90;;;;;;5054310;28;20190;-71
2023/07/01 08:35:21;;;;;;;4.32;3.92;;;18.60;99.90;;;;;;5054329;28;20041;-72
2023/07/01 08:37:46;;;;;;;5.13;4.28;;;18.60;99.90;;;;;;5053721;28;20073;-72
2023/07/01 08:40:12;;;;;;;4.15;3.75;;;18.70;99.90;;;;;;5054010;28;20098;-71
2023/07/01 08:42:43;;;;;;;4.07;3.17;;;18.70;99.90;;;;;;5053822;28;20045;-72
2023/07/01 08:45:10;;;;;;;4.32;3.88;;;18.70;99.90;;;;;;5053883;28;20047;-72
2023/07/01 08:47:37;;;;;;;4.28;3.90;;;18.70;99.90;;;;;;5052667;28;20053;-71
2023/07/01 08:50:07;;;;;;;5.75;4.28;;;18.70;99.90;;;;;;5053601;28;20463;-72
2023/07/01 08:52:59;;;;;;;5.28;4.45;;;18.70;99.90;;;;;;5053628;28;20052;-72
2023/07/01 08:55:25;;;;;;;6.07;4.00;;;18.80;99.90;;;;;;5053963;28;20075;-73
2023/07/01 08:57:50;;;;;;;5.05;4.40;;;18.70;99.90;;;;;;5053645;28;20465;-72
2023/07/01 09:00:16;;;;;;;4.70;4.20;;;18.70;99.90;;;;;;5053603;28;20045;-72
2023/07/01 09:02:42;;;;;;;4.15;3.83;;;18.70;99.90;;;;;;5053167;28;20401;-72
2023/07/01 09:05:08;;;;;;;4.63;4.22;;;18.60;99.90;;;;;;5052412;28;20057;-72
2023/07/01 09:07:34;;;;;;;4.55;4.15;;;18.60;99.90;;;;;;5053187;28;20041;-72
2023/07/01 09:10:03;;;;;;;4.47;4.07;;;18.60;99.90;;;;;;5053415;28;20048;-72
2023/07/01 09:12:32;;;;;;;4.55;4.10;;;18.60;99.90;;;;;;5052394;28;20048;-72
2023/07/01 09:15:06;;;;;;;5.13;4.63;;;18.60;99.90;;;;;;5053281;28;20128;-72
2023/07/01 09:17:42;;;;;;;6.28;5.20;;;18.70;99.90;;;;;;5053239;28;20068;-72
2023/07/01 09:20:12;;;;;;;5.20;4.28;;;18.70;99.90;;;;;;5053425;28;20048;-73
2023/07/01 09:22:41;;;;;;;5.05;4.57;;;18.70;99.90;;;;;;5053279;28;20060;-72
2023/07/01 09:25:07;;;;;;;5.80;5.20;;;18.70;99.90;;;;;;5053324;28;20124;-72
2023/07/01 09:27:48;;;;;;;5.65;4.93;;;18.80;99.90;;;;;;5051650;28;20044;-72
2023/07/01 09:30:20;;;;;;;5.38;4.88;;;18.80;99.90;;;;;;5052421;28;20470;-72
2023/07/01 09:32:49;;;;;;;6.60;4.97;;;18.90;99.90;;;;;;5052891;28;20450;-72
2023/07/01 09:35:15;;;;;;;5.68;5.10;;;19.00;99.90;;;;;;5053222;28;20081;-72
2023/07/01 09:37:40;;;;;;;6.32;4.95;;;19.00;99.90;;;;;;5051592;28;20530;-72
2023/07/01 09:40:21;;;;;;;4.85;4.35;;;19.00;99.90;;;;;;5051880;28;20446;-71
2023/07/01 09:42:51;;;;;;;5.18;4.68;;;19.00;99.90;;;;;;5053210;28;20060;-71
2023/07/01 09:45:17;;;;;;;5.68;4.60;;;18.90;99.90;;;;;;5052883;28;20045;-72
2023/07/01 09:47:43;;;;;;;5.57;5.00;;;18.90;99.90;;;;;;5052656;28;20121;-72
2023/07/01 09:50:20;;;;;;;4.95;4.45;;;18.90;99.90;;;;;;5052668;28;20041;-71
2023/07/01 09:52:48;;;;;;;5.28;4.78;;;19.10;99.90;;;;;;5052654;28;20183;-71
2023/07/01 09:55:14;;;;;;;4.57;4.20;;;19.20;99.90;;;;;;5052835;28;20075;-72
2023/07/01 09:57:41;;;;;;;5.00;4.47;;;19.30;99.90;;;;;;5052428;28;20037;-72
2023/07/01 10:00:10;;;;;;;4.20;3.88;;;19.30;99.90;;;;;;5051586;28;20044;-71
2023/07/01 10:02:36;;;;;;;4.03;3.72;;;19.30;99.90;;;;;;5052878;28;20079;-71
2023/07/01 10:05:02;;;;;;;3.90;3.60;;;19.30;99.90;;;;;;5052309;28;20499;-72
2023/07/01 10:07:27;;;;;;;4.65;4.13;;;19.30;99.90;;;;;;5052253;28;20099;-71
2023/07/01 10:09:53;;;;;;;4.10;3.70;;;19.30;99.90;;;;;;5052125;28;20049;-71
2023/07/01 10:12:20;;;;;;;4.03;3.72;;;19.30;99.90;;;;;;5052535;28;20091;-72
2023/07/01 10:14:50;;;;;;;4.50;3.85;;;19.40;99.90;;;;;;5052340;28;20053;-72
2023/07/01 10:17:17;;;;;;;5.00;4.50;;;19.50;99.90;;;;;;5052272;28;20048;-71
2023/07/01 10:19:46;;;;;;;5.35;4.45;;;19.60;99.90;;;;;;5051402;28;20538;-71
2023/07/01 10:22:29;;;;;;;4.90;3.70;;;19.70;99.90;;;;;;5052404;28;20095;-71
2023/07/01 10:25:03;;;;;;;4.28;3.88;;;19.70;99.90;;;;;;5052640;28;20182;-72
2023/07/01 10:27:42;;;;;;;4.63;4.15;;;19.70;99.90;;;;;;5052131;28;20040;-71
2023/07/01 10:30:14;;;;;;;4.78;3.97;;;19.60;99.90;;;;;;5051990;28;20044;-71
2023/07/01 10:32:40;;;;;;;5.85;4.70;;;19.50;99.90;;;;;;5051044;28;20137;-71
2023/07/01 10:35:07;;;;;;;5.63;5.07;;;19.50;99.90;;;;;;5034696;28;20063;-70
2023/07/01 10:37:33;;;;;;;5.32;3.72;;;19.60;99.90;;;;;;5052470;28;20045;-70
2023/07/01 10:40:07;;;;;;;4.90;4.40;;;19.60;99.90;;;;;;5051913;28;20148;-71
2023/07/01 10:42:36;;;;;;;6.13;4.30;;;19.60;99.90;;;;;;5051932;28;20110;-71
2023/07/01 10:45:11;;;;;;;4.68;3.88;;;19.60;99.90;;;;;;5050826;28;20053;-71
2023/07/01 10:47:44;;;;;;;4.63;4.22;;;19.60;99.90;;;;;;5051843;28;20044;-71
2023/07/01 10:50:11;;;;;;;;;;;19.60;99.90;;;;;;5056114;28;20045;-70
2023/07/01 10:52:55;;;;;;;5.38;4.88;;;19.50;99.90;;;;;;5056018;28;19960;-71
2023/07/01 10:55:49;;;;;;;5.82;4.90;;;19.60;99.90;;;;;;5056073;28;20041;-71
2023/07/01 10:58:22;;;;;;;7.03;5.25;;;19.60;99.90;;;;;;5056031;28;20102;-70
2023/07/01 11:00:52;;;;;;;6.78;4.22;;;19.60;99.90;;;;;;5056435;28;20064;-70
2023/07/01 11:03:33;;;;;;;5.72;4.43;;;19.60;99.90;;;;;;5055070;28;20458;-71
2023/07/01 11:06:11;;;;;;;3.90;3.35;;;19.60;99.90;;;;;;5054986;28;20086;-71
2023/07/01 11:08:48;;;;;;;4.75;3.88;;;19.70;99.90;;;;;;5056103;28;20075;-71
2023/07/01 11:11:24;;;;;;;3.33;3.03;;;19.70;99.90;;;;;;5056113;28;20062;-71
2023/07/01 11:14:01;;;;;;;2.65;2.42;;;19.80;99.90;;;;;;5054980;28;20087;-71
2023/07/01 11:16:28;;;;;;;2.85;2.22;;;19.70;99.90;;;;;;5055698;28;20048;-71
2023/07/01 11:18:56;;;;;;;2.22;2.03;;;19.80;99.90;;;;;;5054569;28;20053;-70
2023/07/01 11:21:25;;;;;;;2.83;2.47;;;19.80;99.90;;;;;;5054123;28;20048;-70
2023/07/01 11:24:03;;;;;;;3.30;1.65;;;19.90;99.90;;;;;;5055430;28;20515;-69
2023/07/01 11:26:35;;;;;;;1.60;1.50;;;19.90;99.90;;;;;;5055418;28;20049;-70
2023/07/01 11:29:02;;;;;;;1.50;1.40;;;19.90;99.90;;;;;;5055250;28;20041;-71
2023/07/01 11:31:34;;;;;;;1.77;1.67;;;19.90;99.90;;;;;;5055393;28;20166;-71
2023/07/01 11:34:01;;;;;;;1.60;1.50;;;19.90;99.90;;;;;;5054220;28;20053;-71
2023/07/01 11:36:37;;;;;;;2.08;1.35;;;19.90;99.90;;;;;;5055199;28;20052;-71
2023/07/01 11:39:07;;;;;;;1.75;1.27;;;20.00;99.90;;;;;;5055594;28;20060;-71
2023/07/01 11:41:35;;;;;;;1.25;1.15;;;20.00;99.90;;;;;;5055280;28;20064;-71
2023/07/01 11:44:01;;;;;;;1.33;1.23;;;20.20;99.90;;;;;;5054906;28;20052;-72
2023/07/01 11:46:31;;;;;;;2.05;0.95;;;20.50;99.90;;;;;;5055222;28;20063;-71
2023/07/01 11:48:57;;;;;;;1.17;1.08;;;20.80;99.90;;;;;;5054899;28;20118;-72
2023/07/01 11:51:56;;;;;;;0.80;0.80;;;21.20;99.90;;;;;;5055278;28;20053;-72
2023/07/01 11:54:24;;;;;;;0.80;0.80;;;21.30;99.90;;;;;;5021416;28;20095;-72
2023/07/01 11:57:14;;;;;;;0.70;0.70;;;21.20;99.90;;;;;;5054075;28;20056;-71
2023/07/01 11:59:41;;;;;;;1.25;0.98;;;21.00;99.90;;;;;;5054484;28;20041;-72
2023/07/01 12:02:08;;;;;;;1.77;1.05;;;20.80;99.90;;;;;;5054645;28;20064;-71
2023/07/01 12:04:35;;;;;;;1.08;0.98;;;20.90;99.90;;;;;;5053355;28;20135;-72
2023/07/01 12:07:17;;;;;;;1.20;1.00;;;21.10;99.90;;;;;;5055116;28;20174;-73
2023/07/01 12:09:44;;;;;;;1.05;1.05;;;21.50;99.90;;;;;;5053709;28;20045;-72
2023/07/01 12:12:31;;;;;;;1.23;1.10;;;21.90;99.90;;;;;;5054521;28;20056;-72
2023/07/01 12:15:05;;;;;;;2.80;1.60;;;22.20;99.90;;;;;;5043218;28;20140;-72
2023/07/01 12:17:31;;;;;;;4.40;2.45;;;22.40;99.90;;;;;;5054517;28;20051;-72
2023/07/01 12:20:01;;;;;;;2.83;2.17;;;22.50;99.90;;;;;;5053847;28;20139;-72
2023/07/01 12:22:28;;;;;;;2.58;2.38;;;22.50;99.90;;;;;;5054503;28;20124;-73
2023/07/01 12:24:58;;;;;;;2.50;2.22;;;22.40;99.90;;;;;;5052913;28;20120;-72
2023/07/01 12:27:24;;;;;;;3.50;2.55;;;22.50;99.90;;;;;;5054440;28;20135;-72
2023/07/01 12:29:50;;;;;;;4.30;2.88;;;22.50;99.90;;;;;;5053267;28;20056;-73
2023/07/01 12:32:16;;;;;;;3.42;3.03;;;22.30;99.90;;;;;;5053906;28;20053;-72
2023/07/01 12:34:42;;;;;;;3.35;3.05;;;22.20;99.90;;;;;;5052671;28;20093;-72
2023/07/01 12:37:08;;;;;;;4.35;3.22;;;22.20;99.90;;;;;;5054505;28;20045;-73
2023/07/01 12:39:35;;;;;;;4.18;2.78;;;22.00;99.90;;;;;;5053949;28;20065;-73
2023/07/01 12:42:01;;;;;;;5.40;3.55;;;22.00;99.90;;;;;;5054109;28;20044;-73
2023/07/01 12:44:27;;;;;;;4.63;3.50;;;21.90;99.90;;;;;;5053635;28;20041;-73
2023/07/01 12:46:53;;;;;;;4.13;3.42;;;22.00;99.90;;;;;;5052610;28;20055;-73
2023/07/01 12:49:19;;;;;;;3.70;3.40;;;21.90;99.90;;;;;;5052013;28;20044;-73
2023/07/01 12:51:45;;;;;;;5.20;4.07;;;21.90;99.90;;;;;;5054126;28;20048;-72